createdAt,value
2022-12-13T00:01:47.841Z,9.52
2022-12-13T00:04:16.279Z,9.32
2022-12-13T00:06:44.753Z,9.35
2022-12-13T00:09:16.004Z,8.45
2022-12-13T00:11:44.564Z,8.35
2022-12-13T00:14:14.185Z,8.15
2022-12-13T00:16:46.773Z,6.93
2022-12-13T00:19:15.810Z,8.90
2022-12-13T00:21:43.977Z,6.85
2022-12-13T00:24:12.278Z,9.25
2022-12-13T00:26:41.934Z,15.35
2022-12-13T00:29:10.978Z,7.88
2022-12-13T00:34:28.479Z,7.70
2022-12-13T00:36:59.054Z,7.78
2022-12-13T00:39:27.580Z,8.07
2022-12-13T00:41:57.378Z,7.53
2022-12-13T00:44:25.720Z,8.82
2022-12-13T00:46:53.954Z,10.70
2022-12-13T00:49:22.386Z,8.98
2022-12-13T00:51:51.001Z,9.13
2022-12-13T00:54:19.369Z,11.90
2022-12-13T00:56:47.694Z,8.68
2022-12-13T00:59:17.408Z,8.00
2022-12-13T01:01:46.960Z,8.18
2022-12-13T01:04:15.331Z,10.07
2022-12-13T01:06:45.224Z,8.98
2022-12-13T01:09:18.288Z,10.90
2022-12-13T01:11:47.249Z,11.68
2022-12-13T01:14:15.558Z,8.55
2022-12-13T01:16:45.153Z,9.60
2022-12-13T01:19:13.408Z,7.55
2022-12-13T01:21:41.625Z,9.57
2022-12-13T01:24:12.345Z,9.13
2022-12-13T01:26:40.555Z,11.57
2022-12-13T01:29:11.346Z,12.13
2022-12-13T01:31:41.725Z,8.85
2022-12-13T01:34:12.980Z,10.75
2022-12-13T01:36:43.768Z,11.82
2022-12-13T01:39:15.596Z,11.73
2022-12-13T01:41:45.384Z,9.73
2022-12-13T01:44:50.799Z,10.15
2022-12-13T01:47:23.968Z,14.63
2022-12-13T01:49:56.047Z,9.80
2022-12-13T01:52:30.463Z,12.65
2022-12-13T01:55:03.775Z,8.63
2022-12-13T01:57:47.905Z,11.43
2022-12-13T02:00:17.827Z,11.10
2022-12-13T02:02:47.972Z,10.60
2022-12-13T02:05:26.497Z,10.55
2022-12-13T02:07:55.245Z,10.10
2022-12-13T02:10:23.533Z,12.52
2022-12-13T02:12:51.916Z,10.25
2022-12-13T02:15:21.299Z,10.23
2022-12-13T02:18:03.138Z,12.88
2022-12-13T02:21:07.047Z,10.55
2022-12-13T02:24:14.020Z,11.75
2022-12-13T02:26:50.788Z,15.40
2022-12-13T02:29:48.436Z,11.80
2022-12-13T02:32:28.259Z,10.27
2022-12-13T02:35:03.720Z,10.52
2022-12-13T02:37:40.488Z,13.85
2022-12-13T02:40:14.735Z,14.68
2022-12-13T02:42:50.970Z,13.40
2022-12-13T02:45:24.870Z,7.15
2022-12-13T02:47:58.606Z,11.77
2022-12-13T02:50:28.863Z,12.38
2022-12-13T02:52:57.400Z,11.88
2022-12-13T02:55:28.472Z,14.88
2022-12-13T02:57:56.857Z,14.43
2022-12-13T03:00:33.581Z,15.98
2022-12-13T03:03:19.225Z,11.43
2022-12-13T03:06:09.050Z,12.55
2022-12-13T03:08:48.866Z,13.30
2022-12-13T03:11:20.520Z,12.07
2022-12-13T03:13:53.278Z,11.88
2022-12-13T03:16:36.655Z,14.90
2022-12-13T03:19:08.845Z,23.52
2022-12-13T03:21:47.013Z,22.70
2022-12-13T03:24:18.928Z,15.13
2022-12-13T03:26:48.480Z,13.15
2022-12-13T03:29:23.835Z,15.95
2022-12-13T03:31:53.543Z,15.57
2022-12-13T03:34:23.455Z,14.18
2022-12-13T03:36:52.396Z,13.73
2022-12-13T03:39:21.674Z,13.80
2022-12-13T03:41:50.369Z,19.70
2022-12-13T03:44:18.906Z,15.30
2022-12-13T03:46:47.198Z,12.05
2022-12-13T03:49:17.371Z,15.35
2022-12-13T03:51:47.917Z,12.82
2022-12-13T03:54:16.249Z,15.73
2022-12-13T03:56:44.462Z,12.20
2022-12-13T03:59:12.665Z,15.30
2022-12-13T04:01:40.908Z,13.07
2022-12-13T04:04:09.239Z,14.77
2022-12-13T04:06:37.517Z,11.23
2022-12-13T04:09:07.141Z,13.27
2022-12-13T04:11:52.339Z,15.18
2022-12-13T04:14:22.374Z,13.65
2022-12-13T04:16:52.269Z,13.93
2022-12-13T04:19:23.851Z,13.70
2022-12-13T04:21:54.215Z,23.70
2022-12-13T04:24:30.819Z,14.68
2022-12-13T04:27:00.701Z,11.93
2022-12-13T04:29:33.814Z,14.85
2022-12-13T04:32:03.666Z,14.25
2022-12-13T04:34:37.110Z,16.48
2022-12-13T04:37:06.238Z,18.67
2022-12-13T04:39:36.181Z,19.55
2022-12-13T04:42:04.832Z,16.85
2022-12-13T04:44:36.789Z,26.52
2022-12-13T04:47:05.985Z,20.85
2022-12-13T04:49:34.656Z,21.50
2022-12-13T04:52:03.623Z,17.10
2022-12-13T04:54:36.674Z,13.70
2022-12-13T04:57:10.247Z,15.63
2022-12-13T04:59:39.227Z,18.83
2022-12-13T05:02:08.931Z,16.15
2022-12-13T05:04:37.384Z,21.17
2022-12-13T05:07:05.708Z,16.05
2022-12-13T05:09:33.914Z,16.90
2022-12-13T05:12:02.380Z,21.55
2022-12-13T05:14:32.818Z,17.55
2022-12-13T05:17:01.364Z,15.52
2022-12-13T05:19:31.418Z,16.67
2022-12-13T05:22:01.597Z,21.55
2022-12-13T05:24:31.528Z,16.42
2022-12-13T05:27:00.177Z,13.35
2022-12-13T05:29:28.448Z,17.50
2022-12-13T05:31:58.102Z,16.30
2022-12-13T05:34:26.687Z,17.40
2022-12-13T05:36:54.917Z,19.80
2022-12-13T05:39:28.362Z,15.75
2022-12-13T05:42:02.049Z,14.40
2022-12-13T05:44:32.667Z,17.40
2022-12-13T05:47:03.108Z,20.10
2022-12-13T05:49:32.516Z,14.07
2022-12-13T05:52:00.871Z,19.55
2022-12-13T05:54:29.393Z,16.38
2022-12-13T05:56:57.967Z,15.05
2022-12-13T05:59:26.265Z,19.30
2022-12-13T06:01:54.625Z,14.40
2022-12-13T06:04:24.278Z,20.55
2022-12-13T06:06:53.573Z,13.55
2022-12-13T06:09:22.638Z,17.05
2022-12-13T06:11:51.435Z,20.35
2022-12-13T06:14:22.567Z,17.17
2022-12-13T06:16:53.015Z,20.63
2022-12-13T06:19:22.175Z,20.73
2022-12-13T06:21:53.879Z,16.42
2022-12-13T06:24:24.018Z,19.17
2022-12-13T06:26:52.872Z,20.95
2022-12-13T06:29:25.577Z,20.83
2022-12-13T06:32:02.417Z,15.95
2022-12-13T06:34:33.464Z,17.73
2022-12-13T06:37:05.818Z,21.27
2022-12-13T06:39:34.171Z,16.48
2022-12-13T06:42:06.202Z,17.77
2022-12-13T06:44:35.222Z,17.70
2022-12-13T06:47:12.092Z,19.92
2022-12-13T06:49:44.827Z,18.50
2022-12-13T06:52:15.858Z,17.55
2022-12-13T06:54:45.056Z,20.38
2022-12-13T06:57:14.279Z,16.85
2022-12-13T06:59:43.024Z,20.95
2022-12-13T07:02:15.309Z,19.13
2022-12-13T07:04:55.309Z,21.00
2022-12-13T07:07:25.778Z,19.58
2022-12-13T07:09:54.382Z,17.23
2022-12-13T07:12:23.153Z,20.55
2022-12-13T07:14:51.443Z,22.65
2022-12-13T07:17:32.816Z,13.18
2022-12-13T07:20:09.231Z,20.55
2022-12-13T07:22:46.767Z,20.58
2022-12-13T07:25:26.809Z,25.88
2022-12-13T07:28:01.380Z,25.25
2022-12-13T07:30:31.658Z,19.48
2022-12-13T07:33:00.108Z,23.02
2022-12-13T07:35:28.299Z,22.02
2022-12-13T07:37:58.170Z,17.95
2022-12-13T07:40:27.082Z,24.00
2022-12-13T07:42:57.036Z,24.30
2022-12-13T07:45:26.651Z,23.70
2022-12-13T07:47:54.991Z,22.85
2022-12-13T07:50:24.654Z,22.92
2022-12-13T07:52:53.955Z,22.17
2022-12-13T07:55:33.170Z,23.98
2022-12-13T07:58:11.831Z,28.10
2022-12-13T08:00:41.332Z,25.33
2022-12-13T08:03:24.998Z,18.38
2022-12-13T08:06:00.707Z,21.83
2022-12-13T08:08:31.561Z,29.73
2022-12-13T08:11:04.916Z,51.15
2022-12-13T08:13:33.409Z,25.35
2022-12-13T08:16:02.344Z,28.65
2022-12-13T08:18:30.992Z,28.48
2022-12-13T08:21:00.508Z,29.55
2022-12-13T08:23:31.235Z,21.23
2022-12-13T08:25:59.724Z,27.00
2022-12-13T08:28:30.531Z,21.10
2022-12-13T08:31:04.889Z,17.40
2022-12-13T08:33:34.167Z,17.17
2022-12-13T08:36:10.090Z,14.48
2022-12-13T08:38:38.492Z,18.70
2022-12-13T08:41:07.645Z,18.77
2022-12-13T08:43:37.697Z,21.98
2022-12-13T08:46:06.130Z,13.60
2022-12-13T08:48:34.957Z,17.83
2022-12-13T08:51:14.896Z,15.32
2022-12-13T08:53:53.338Z,13.77
2022-12-13T08:56:39.428Z,12.63
2022-12-13T08:59:15.943Z,15.50
2022-12-13T09:01:44.417Z,15.27
2022-12-13T09:04:12.665Z,17.05
2022-12-13T09:06:43.081Z,11.20
2022-12-13T09:09:11.969Z,12.35
2022-12-13T09:11:41.507Z,10.50
2022-12-13T09:14:14.074Z,11.00
2022-12-13T09:16:50.556Z,13.63
2022-12-13T09:19:25.832Z,13.38
2022-12-13T09:22:02.678Z,8.35
2022-12-13T09:24:35.729Z,9.73
2022-12-13T09:27:09.702Z,7.80
2022-12-13T09:29:38.596Z,10.23
2022-12-13T09:32:08.327Z,7.75
2022-12-13T09:34:36.658Z,10.35
2022-12-13T09:37:07.308Z,11.50
2022-12-13T09:39:35.543Z,11.70
2022-12-13T09:42:10.703Z,12.73
2022-12-13T09:44:49.734Z,10.02
2022-12-13T09:47:35.303Z,15.88
2022-12-13T09:50:08.169Z,13.63
2022-12-13T09:52:46.784Z,13.48
2022-12-13T09:55:23.622Z,17.25
2022-12-13T09:57:52.822Z,12.60
2022-12-13T10:00:23.483Z,10.73
2022-12-13T10:02:55.178Z,11.32
2022-12-13T10:05:34.402Z,12.07
2022-12-13T10:08:10.158Z,10.80
2022-12-13T10:10:39.228Z,10.85
2022-12-13T10:13:17.862Z,13.35
2022-12-13T10:15:51.665Z,10.05
2022-12-13T10:18:28.355Z,13.95
2022-12-13T10:20:57.533Z,12.95
2022-12-13T10:23:47.094Z,11.30
2022-12-13T10:26:24.311Z,14.88
2022-12-13T10:29:04.122Z,11.88
2022-12-13T10:31:41.557Z,13.63
2022-12-13T10:34:22.439Z,11.85
2022-12-13T10:36:51.082Z,9.30
2022-12-13T10:39:36.898Z,17.10
2022-12-13T10:42:06.425Z,13.38
2022-12-13T10:44:34.785Z,11.95
2022-12-13T10:47:16.903Z,14.60
2022-12-13T10:49:58.782Z,12.00
2022-12-13T10:52:31.916Z,9.05
2022-12-13T10:55:04.637Z,11.13
2022-12-13T10:57:53.538Z,7.47
2022-12-13T11:00:39.800Z,9.90
2022-12-13T11:03:09.282Z,13.23
2022-12-13T11:05:40.620Z,8.70
2022-12-13T11:08:21.850Z,13.02
2022-12-13T11:10:59.470Z,11.00
2022-12-13T11:13:38.516Z,9.60
2022-12-13T11:16:21.651Z,8.60
2022-12-13T11:18:54.171Z,9.45
2022-12-13T11:21:27.734Z,9.82
2022-12-13T11:24:01.567Z,9.65
2022-12-13T11:26:33.696Z,7.68
2022-12-13T11:29:12.499Z,11.60
2022-12-13T11:31:52.344Z,14.15
2022-12-13T11:34:28.203Z,9.82
2022-12-13T11:37:06.605Z,8.73
2022-12-13T11:39:38.895Z,9.50
2022-12-13T11:42:14.740Z,12.30
2022-12-13T11:44:50.959Z,8.77
2022-12-13T11:47:26.475Z,7.63
2022-12-13T11:49:55.463Z,9.80
2022-12-13T11:52:28.751Z,14.35
2022-12-13T11:55:01.892Z,13.02
2022-12-13T11:57:44.089Z,11.30
2022-12-13T12:00:34.060Z,9.73
2022-12-13T12:03:19.639Z,13.60
2022-12-13T12:05:56.019Z,11.35
2022-12-13T12:08:34.411Z,11.20
2022-12-13T12:11:13.322Z,10.18
2022-12-13T12:13:51.481Z,11.93
2022-12-13T12:16:34.131Z,14.90
2022-12-13T12:19:02.799Z,14.52
2022-12-13T12:24:40.214Z,16.58
2022-12-13T12:27:23.989Z,15.25
2022-12-13T12:30:08.640Z,10.90
2022-12-13T12:32:45.641Z,10.23
2022-12-13T12:35:30.963Z,9.48
2022-12-13T12:38:11.725Z,8.75
2022-12-13T12:41:16.529Z,7.20
2022-12-13T12:43:49.338Z,7.43
2022-12-13T12:47:09.095Z,9.75
2022-12-13T12:49:52.290Z,16.00
2022-12-13T12:52:29.879Z,14.32
2022-12-13T12:55:11.907Z,9.85
2022-12-13T12:57:55.728Z,12.70
2022-12-13T13:00:31.796Z,11.23
2022-12-13T13:03:18.850Z,17.08
2022-12-13T13:05:57.078Z,12.40
2022-12-13T13:08:36.923Z,13.38
2022-12-13T13:11:23.891Z,11.45
2022-12-13T13:14:28.662Z,16.05
2022-12-13T13:16:57.444Z,14.73
2022-12-13T13:19:48.304Z,16.15
2022-12-13T13:22:34.915Z,15.15
2022-12-13T13:25:23.778Z,13.13
2022-12-13T13:27:52.869Z,15.35
2022-12-13T13:30:24.455Z,12.23
2022-12-13T13:32:54.335Z,16.65
2022-12-13T13:35:56.009Z,18.30
2022-12-13T13:38:48.960Z,13.80
2022-12-13T13:41:56.907Z,13.40
2022-12-13T13:44:50.369Z,17.05
2022-12-13T13:47:36.811Z,11.25
2022-12-13T13:50:23.298Z,10.52
2022-12-13T13:53:03.229Z,16.45
2022-12-13T13:55:48.850Z,13.45
2022-12-13T13:59:08.943Z,12.07
2022-12-13T14:02:08.210Z,10.15
2022-12-13T14:04:58.040Z,15.50
2022-12-13T14:07:50.043Z,20.10
2022-12-13T14:10:38.326Z,17.95
2022-12-13T14:13:44.473Z,16.40
2022-12-13T14:16:46.576Z,19.55
2022-12-13T14:19:56.073Z,17.00
2022-12-13T14:22:35.008Z,17.85
2022-12-13T14:25:46.445Z,23.67
2022-12-13T14:28:29.118Z,18.38
2022-12-13T14:30:58.023Z,18.38
2022-12-13T14:33:28.319Z,19.13
2022-12-13T14:35:59.430Z,24.80
2022-12-13T14:38:31.666Z,18.50
2022-12-13T14:41:01.537Z,22.65
2022-12-13T14:43:31.407Z,21.00
2022-12-13T14:46:01.741Z,21.83
2022-12-13T14:48:32.335Z,23.08
2022-12-13T14:51:00.618Z,22.05
2022-12-13T14:53:34.626Z,23.20
2022-12-13T14:56:09.817Z,18.70
2022-12-13T14:58:39.566Z,26.73
2022-12-13T15:01:23.842Z,20.50
2022-12-13T15:04:19.389Z,24.20
2022-12-13T15:06:50.159Z,26.25
2022-12-13T15:09:19.929Z,27.08
2022-12-13T15:11:48.547Z,18.80
2022-12-13T15:14:19.676Z,24.13
2022-12-13T15:16:53.112Z,31.13
2022-12-13T15:19:31.426Z,30.90
2022-12-13T15:22:09.016Z,33.45
2022-12-13T15:24:48.697Z,35.60
2022-12-13T15:27:24.658Z,36.95
2022-12-13T15:29:54.471Z,36.22
2022-12-13T15:32:24.250Z,28.60
2022-12-13T15:34:53.206Z,31.75
2022-12-13T15:37:28.599Z,22.73
2022-12-13T15:40:02.779Z,28.10
2022-12-13T15:42:34.519Z,39.08
2022-12-13T15:45:05.818Z,38.67
2022-12-13T15:47:34.387Z,38.42
2022-12-13T15:50:04.784Z,45.92
2022-12-13T15:52:36.110Z,47.03
2022-12-13T15:55:28.591Z,44.45
2022-12-13T15:57:58.784Z,44.20
2022-12-13T16:00:31.630Z,44.00
2022-12-13T16:03:09.872Z,38.65
2022-12-13T16:05:41.903Z,35.92
2022-12-13T16:08:27.369Z,35.60
2022-12-13T16:10:58.326Z,30.48
2022-12-13T16:13:28.611Z,36.78
2022-12-13T16:16:00.321Z,41.03
2022-12-13T16:18:46.060Z,42.28
2022-12-13T16:21:15.343Z,44.95
2022-12-13T16:23:48.659Z,42.78
2022-12-13T16:26:23.893Z,44.67
2022-12-13T16:28:52.203Z,45.40
2022-12-13T16:31:22.508Z,41.13
2022-12-13T16:33:50.915Z,43.28
2022-12-13T16:36:19.321Z,41.65
2022-12-13T16:38:47.545Z,38.35
2022-12-13T16:41:16.439Z,40.53
2022-12-13T16:43:54.472Z,42.53
2022-12-13T16:47:16.739Z,35.75
2022-12-13T16:49:21.181Z,44.55
2022-12-13T16:51:49.953Z,42.85
2022-12-13T16:54:19.566Z,40.42
2022-12-13T16:56:48.223Z,41.50
2022-12-13T16:59:19.512Z,40.42
2022-12-13T17:01:48.772Z,43.08
2022-12-13T17:04:21.464Z,53.90
2022-12-13T17:06:50.731Z,68.95
2022-12-13T17:09:19.387Z,75.13
2022-12-13T17:11:47.650Z,75.07
2022-12-13T17:14:17.314Z,76.35
2022-12-13T17:16:45.489Z,63.30
2022-12-13T17:19:15.748Z,64.10
2022-12-13T17:21:44.144Z,56.15
2022-12-13T17:24:12.681Z,59.97
2022-12-13T17:26:41.179Z,56.00
2022-12-13T17:29:25.639Z,45.90
2022-12-13T17:31:54.367Z,41.10
2022-12-13T17:34:22.913Z,37.38
2022-12-13T17:36:51.217Z,37.45
2022-12-13T17:39:19.626Z,42.75
2022-12-13T17:41:55.191Z,45.22
2022-12-13T17:44:26.515Z,48.30
2022-12-13T17:46:55.838Z,55.70
2022-12-13T17:49:25.084Z,53.92
2022-12-13T17:51:54.094Z,42.83
2022-12-13T17:54:23.886Z,49.05
2022-12-13T17:56:52.769Z,50.97
2022-12-13T17:59:21.130Z,49.08
2022-12-13T18:01:51.396Z,55.63
2022-12-13T18:04:20.058Z,50.05
2022-12-13T18:06:48.511Z,61.35
2022-12-13T18:09:16.684Z,54.97
2022-12-13T18:11:44.811Z,47.75
2022-12-13T18:14:13.164Z,56.63
2022-12-13T18:16:41.670Z,57.45
2022-12-13T18:19:13.429Z,56.25
2022-12-13T18:21:43.167Z,62.17
2022-12-13T18:24:12.521Z,50.60
2022-12-13T18:26:40.704Z,53.50
2022-12-13T18:29:08.916Z,56.13
2022-12-13T18:31:37.370Z,47.88
2022-12-13T18:34:07.430Z,48.92
2022-12-13T18:36:37.390Z,46.05
2022-12-13T18:39:05.779Z,42.63
2022-12-13T18:41:33.962Z,40.20
2022-12-13T18:44:03.854Z,40.55
2022-12-13T18:46:35.785Z,47.53
2022-12-13T18:49:05.963Z,39.30
2022-12-13T18:51:35.119Z,41.63
2022-12-13T18:54:04.945Z,37.50
2022-12-13T18:56:33.263Z,49.10
2022-12-13T18:59:01.528Z,43.97
2022-12-13T19:01:30.655Z,43.17
2022-12-13T19:03:59.195Z,43.58
2022-12-13T19:06:28.951Z,44.47
2022-12-13T19:08:58.895Z,46.13
2022-12-13T19:11:29.666Z,46.28
2022-12-13T19:13:58.258Z,43.28
2022-12-13T19:16:26.905Z,42.35
2022-12-13T19:18:55.273Z,38.30
2022-12-13T19:21:23.930Z,48.97
2022-12-13T19:23:57.553Z,37.97
2022-12-13T19:26:26.684Z,46.40
2022-12-13T19:28:57.240Z,36.20
2022-12-13T19:31:31.172Z,41.83
2022-12-13T19:34:02.337Z,36.63
2022-12-13T19:36:31.493Z,37.75
2022-12-13T19:38:59.890Z,32.40
2022-12-13T19:41:28.241Z,35.40
2022-12-13T19:43:57.925Z,31.52
2022-12-13T19:46:26.486Z,34.45
2022-12-13T19:48:54.873Z,36.45
2022-12-13T19:51:23.127Z,31.17
2022-12-13T19:53:51.831Z,31.65
2022-12-13T19:56:22.673Z,29.65
2022-12-13T19:58:51.868Z,32.45
2022-12-13T20:01:21.660Z,26.83
2022-12-13T20:03:50.058Z,35.83
2022-12-13T20:06:22.154Z,29.90
2022-12-13T20:08:51.116Z,30.00
2022-12-13T20:11:21.673Z,34.20
2022-12-13T20:13:51.459Z,30.70
2022-12-13T20:16:23.112Z,30.75
2022-12-13T20:18:55.681Z,27.52
2022-12-13T20:21:24.618Z,31.42
2022-12-13T20:23:53.382Z,29.90
2022-12-13T20:26:24.348Z,28.00
2022-12-13T20:28:52.750Z,26.77
2022-12-13T20:31:25.024Z,26.75
2022-12-13T20:33:55.938Z,28.35
2022-12-13T20:36:26.504Z,30.60
2022-12-13T20:38:56.479Z,30.05
2022-12-13T20:41:26.223Z,30.00
2022-12-13T20:43:55.528Z,27.88
2022-12-13T20:46:26.529Z,28.02
2022-12-13T20:48:56.164Z,28.85
2022-12-13T20:51:26.571Z,40.75
2022-12-13T20:53:55.826Z,38.67
2022-12-13T20:56:26.273Z,35.55
2022-12-13T20:58:54.454Z,36.97
2022-12-13T21:01:26.049Z,34.28
2022-12-13T21:03:55.758Z,39.03
2022-12-13T21:06:24.120Z,37.25
2022-12-13T21:08:52.413Z,40.63
2022-12-13T21:11:28.874Z,39.17
2022-12-13T21:14:05.329Z,44.53
2022-12-13T21:16:40.697Z,39.83
2022-12-13T21:19:13.655Z,47.28
2022-12-13T21:21:42.144Z,40.63
2022-12-13T21:24:12.328Z,39.42
2022-12-13T21:26:40.589Z,35.95
2022-12-13T21:29:11.076Z,37.90
2022-12-13T21:31:42.987Z,36.17
2022-12-13T21:34:13.445Z,37.50
2022-12-13T21:36:43.627Z,33.42
2022-12-13T21:39:14.362Z,34.03
2022-12-13T21:41:45.026Z,32.00
2022-12-13T21:44:15.065Z,32.55
2022-12-13T21:47:11.449Z,43.25
2022-12-13T21:49:33.240Z,37.88
2022-12-13T21:52:01.479Z,35.28
2022-12-13T21:54:29.685Z,38.15
2022-12-13T21:57:15.166Z,36.83
2022-12-13T21:59:43.943Z,34.35
2022-12-13T22:02:16.866Z,36.75
2022-12-13T22:04:47.447Z,36.00
2022-12-13T22:07:18.733Z,34.38
2022-12-13T22:09:48.092Z,38.20
2022-12-13T22:12:22.287Z,34.63
2022-12-13T22:14:51.055Z,33.92
2022-12-13T22:17:31.034Z,36.65
2022-12-13T22:20:02.202Z,31.98
2022-12-13T22:22:30.756Z,37.78
2022-12-13T22:24:58.970Z,32.80
2022-12-13T22:27:27.469Z,39.90
2022-12-13T22:29:57.715Z,41.75
2022-12-13T22:32:29.139Z,39.38
2022-12-13T22:34:57.980Z,37.63
2022-12-13T22:37:26.650Z,37.80
2022-12-13T22:39:54.937Z,38.58
2022-12-13T22:42:23.250Z,37.35
2022-12-13T22:44:51.467Z,33.78
2022-12-13T22:47:20.749Z,35.88
2022-12-13T22:49:50.431Z,44.38
2022-12-13T22:52:18.815Z,40.50
2022-12-13T22:54:47.101Z,39.58
2022-12-13T22:57:15.408Z,39.00
2022-12-13T22:59:43.545Z,37.95
2022-12-13T23:02:12.740Z,42.25
2022-12-13T23:04:41.177Z,45.03
2022-12-13T23:07:10.904Z,51.63
2022-12-13T23:09:39.126Z,44.97
2022-12-13T23:12:25.127Z,47.55
2022-12-13T23:14:53.388Z,49.10
2022-12-13T23:17:21.499Z,42.75
2022-12-13T23:19:53.422Z,50.63
2022-12-13T23:22:25.851Z,52.85
2022-12-13T23:24:54.682Z,49.90
2022-12-13T23:27:24.649Z,53.35
2022-12-13T23:29:52.886Z,48.28
2022-12-13T23:32:21.155Z,50.00
2022-12-13T23:34:49.375Z,40.10
2022-12-13T23:37:17.530Z,53.10
2022-12-13T23:39:47.162Z,47.83
2022-12-13T23:42:15.461Z,42.40
2022-12-13T23:44:43.641Z,39.28
2022-12-13T23:47:11.884Z,42.40
2022-12-13T23:49:40.073Z,36.20
2022-12-13T23:52:08.284Z,44.22
2022-12-13T23:54:36.503Z,47.75
2022-12-13T23:57:06.365Z,40.78
2022-12-13T23:59:34.761Z,43.95
